sensor_id;sensor_type;location;lat;lon;timestamp;P1;durP1;ratioP1;P2;durP2;ratioP2
14191;SDS011;7177;48.572;7.838;2022-10-16T00:02:24;3.07;;;1.90;;
14191;SDS011;7177;48.572;7.838;2022-10-16T00:04:49;4.00;;;1.90;;
14191;SDS011;7177;48.572;7.838;2022-10-16T00:07:15;6.97;;;2.17;;
14191;SDS011;7177;48.572;7.838;2022-10-16T00:09:40;2.83;;;1.93;;
14191;SDS011;7177;48.572;7.838;2022-10-16T00:12:06;2.80;;;2.00;;
14191;SDS011;7177;48.572;7.838;2022-10-16T00:14:32;3.43;;;2.17;;
14191;SDS011;7177;48.572;7.838;2022-10-16T00:16:57;4.87;;;2.27;;
14191;SDS011;7177;48.572;7.838;2022-10-16T00:19:23;2.63;;;2.10;;
14191;SDS011;7177;48.572;7.838;2022-10-16T00:21:49;3.53;;;2.40;;
14191;SDS011;7177;48.572;7.838;2022-10-16T00:24:14;4.33;;;2.40;;
14191;SDS011;7177;48.572;7.838;2022-10-16T00:26:40;5.43;;;2.47;;
14191;SDS011;7177;48.572;7.838;2022-10-16T00:29:06;4.47;;;2.07;;
14191;SDS011;7177;48.572;7.838;2022-10-16T00:31:31;5.00;;;2.60;;
14191;SDS011;7177;48.572;7.838;2022-10-16T00:33:57;4.80;;;2.43;;
14191;SDS011;7177;48.572;7.838;2022-10-16T00:36:23;5.43;;;2.27;;
14191;SDS011;7177;48.572;7.838;2022-10-16T00:38:51;4.73;;;2.60;;
14191;SDS011;7177;48.572;7.838;2022-10-16T00:41:18;4.47;;;2.20;;
14191;SDS011;7177;48.572;7.838;2022-10-16T00:43:54;7.27;;;2.33;;
14191;SDS011;7177;48.572;7.838;2022-10-16T00:46:23;8.13;;;2.70;;
14191;SDS011;7177;48.572;7.838;2022-10-16T00:49:05;4.77;;;2.57;;
14191;SDS011;7177;48.572;7.838;2022-10-16T00:51:43;6.47;;;2.50;;
14191;SDS011;7177;48.572;7.838;2022-10-16T00:54:13;2.67;;;2.00;;
14191;SDS011;7177;48.572;7.838;2022-10-16T00:56:43;4.43;;;2.50;;
14191;SDS011;7177;48.572;7.838;2022-10-16T00:59:11;5.50;;;2.40;;
14191;SDS011;7177;48.572;7.838;2022-10-16T01:01:44;4.53;;;2.50;;
14191;SDS011;7177;48.572;7.838;2022-10-16T01:04:10;3.40;;;2.23;;
14191;SDS011;7177;48.572;7.838;2022-10-16T01:11:49;2.93;;;2.40;;
14191;SDS011;7177;48.572;7.838;2022-10-16T01:14:33;4.47;;;2.97;;
14191;SDS011;7177;48.572;7.838;2022-10-16T01:17:22;5.33;;;2.60;;
14191;SDS011;7177;48.572;7.838;2022-10-16T01:28:19;3.00;;;2.30;;
14191;SDS011;7177;48.572;7.838;2022-10-16T01:30:48;2.73;;;2.20;;
14191;SDS011;7177;48.572;7.838;2022-10-16T01:33:19;4.43;;;2.00;;
14191;SDS011;7177;48.572;7.838;2022-10-16T01:35:48;5.93;;;2.23;;
14191;SDS011;7177;48.572;7.838;2022-10-16T01:38:24;2.37;;;1.90;;
14191;SDS011;7177;48.572;7.838;2022-10-16T01:40:58;4.57;;;2.20;;
14191;SDS011;7177;48.572;7.838;2022-10-16T01:43:38;6.63;;;2.20;;
14191;SDS011;7177;48.572;7.838;2022-10-16T01:46:08;4.57;;;2.10;;
14191;SDS011;7177;48.572;7.838;2022-10-16T01:48:35;4.30;;;2.17;;
14191;SDS011;7177;48.572;7.838;2022-10-16T01:51:11;3.83;;;2.13;;
14191;SDS011;7177;48.572;7.838;2022-10-16T01:53:39;5.03;;;2.10;;
14191;SDS011;7177;48.572;7.838;2022-10-16T01:56:08;3.43;;;2.20;;
14191;SDS011;7177;48.572;7.838;2022-10-16T01:58:38;3.40;;;2.10;;
14191;SDS011;7177;48.572;7.838;2022-10-16T02:01:08;2.93;;;1.97;;
14191;SDS011;7177;48.572;7.838;2022-10-16T02:03:37;4.27;;;2.30;;
14191;SDS011;7177;48.572;7.838;2022-10-16T02:06:06;2.97;;;2.13;;
14191;SDS011;7177;48.572;7.838;2022-10-16T02:08:32;4.17;;;2.53;;
14191;SDS011;7177;48.572;7.838;2022-10-16T02:10:59;4.03;;;2.10;;
14191;SDS011;7177;48.572;7.838;2022-10-16T02:13:45;3.67;;;2.50;;
14191;SDS011;7177;48.572;7.838;2022-10-16T02:16:15;3.90;;;2.43;;
14191;SDS011;7177;48.572;7.838;2022-10-16T02:18:41;3.37;;;2.33;;
14191;SDS011;7177;48.572;7.838;2022-10-16T02:22:09;3.70;;;2.33;;
14191;SDS011;7177;48.572;7.838;2022-10-16T02:26:52;4.10;;;2.53;;
14191;SDS011;7177;48.572;7.838;2022-10-16T02:29:22;7.37;;;2.30;;
14191;SDS011;7177;48.572;7.838;2022-10-16T02:31:51;6.07;;;2.63;;
14191;SDS011;7177;48.572;7.838;2022-10-16T02:34:20;5.03;;;2.80;;
14191;SDS011;7177;48.572;7.838;2022-10-16T02:36:48;4.90;;;2.57;;
14191;SDS011;7177;48.572;7.838;2022-10-16T02:39:16;4.97;;;2.90;;
14191;SDS011;7177;48.572;7.838;2022-10-16T02:41:43;5.57;;;2.70;;
14191;SDS011;7177;48.572;7.838;2022-10-16T02:44:08;8.50;;;2.50;;
14191;SDS011;7177;48.572;7.838;2022-10-16T02:46:34;5.10;;;2.77;;
14191;SDS011;7177;48.572;7.838;2022-10-16T02:48:59;7.30;;;2.47;;
14191;SDS011;7177;48.572;7.838;2022-10-16T02:51:25;5.77;;;2.70;;
14191;SDS011;7177;48.572;7.838;2022-10-16T02:53:51;7.23;;;3.23;;
14191;SDS011;7177;48.572;7.838;2022-10-16T02:56:16;4.40;;;2.50;;
14191;SDS011;7177;48.572;7.838;2022-10-16T02:58:42;5.70;;;2.90;;
14191;SDS011;7177;48.572;7.838;2022-10-16T03:01:07;8.80;;;2.90;;
14191;SDS011;7177;48.572;7.838;2022-10-16T03:03:33;7.57;;;2.87;;
14191;SDS011;7177;48.572;7.838;2022-10-16T03:05:58;7.30;;;3.10;;
14191;SDS011;7177;48.572;7.838;2022-10-16T03:08:24;5.53;;;3.20;;
14191;SDS011;7177;48.572;7.838;2022-10-16T03:10:50;6.30;;;3.13;;
14191;SDS011;7177;48.572;7.838;2022-10-16T03:13:16;4.57;;;2.60;;
14191;SDS011;7177;48.572;7.838;2022-10-16T03:15:43;3.03;;;2.67;;
14191;SDS011;7177;48.572;7.838;2022-10-16T03:18:08;4.30;;;2.90;;
14191;SDS011;7177;48.572;7.838;2022-10-16T03:20:34;6.00;;;2.90;;
14191;SDS011;7177;48.572;7.838;2022-10-16T03:22:59;6.07;;;2.73;;
14191;SDS011;7177;48.572;7.838;2022-10-16T03:25:25;4.53;;;2.90;;
14191;SDS011;7177;48.572;7.838;2022-10-16T03:27:50;6.30;;;3.03;;
14191;SDS011;7177;48.572;7.838;2022-10-16T03:30:16;3.80;;;2.80;;
14191;SDS011;7177;48.572;7.838;2022-10-16T03:32:43;9.73;;;3.60;;
14191;SDS011;7177;48.572;7.838;2022-10-16T03:35:09;6.00;;;2.80;;
14191;SDS011;7177;48.572;7.838;2022-10-16T03:37:35;6.07;;;2.83;;
14191;SDS011;7177;48.572;7.838;2022-10-16T03:40:01;3.53;;;2.93;;
14191;SDS011;7177;48.572;7.838;2022-10-16T03:42:28;7.07;;;3.00;;
14191;SDS011;7177;48.572;7.838;2022-10-16T03:44:53;7.27;;;3.00;;
14191;SDS011;7177;48.572;7.838;2022-10-16T03:47:19;6.73;;;3.70;;
14191;SDS011;7177;48.572;7.838;2022-10-16T03:49:46;10.93;;;3.13;;
14191;SDS011;7177;48.572;7.838;2022-10-16T03:52:12;6.07;;;3.47;;
14191;SDS011;7177;48.572;7.838;2022-10-16T03:54:38;12.40;;;3.43;;
14191;SDS011;7177;48.572;7.838;2022-10-16T03:57:04;6.37;;;3.43;;
14191;SDS011;7177;48.572;7.838;2022-10-16T03:59:29;14.07;;;3.60;;
14191;SDS011;7177;48.572;7.838;2022-10-16T04:01:55;10.00;;;3.30;;
14191;SDS011;7177;48.572;7.838;2022-10-16T04:04:20;3.47;;;3.13;;
14191;SDS011;7177;48.572;7.838;2022-10-16T04:06:46;5.80;;;3.70;;
14191;SDS011;7177;48.572;7.838;2022-10-16T04:09:11;8.43;;;3.60;;
14191;SDS011;7177;48.572;7.838;2022-10-16T04:11:37;8.70;;;3.63;;
14191;SDS011;7177;48.572;7.838;2022-10-16T04:14:02;7.53;;;3.57;;
14191;SDS011;7177;48.572;7.838;2022-10-16T04:16:28;6.77;;;3.37;;
14191;SDS011;7177;48.572;7.838;2022-10-16T04:18:53;7.03;;;3.57;;
14191;SDS011;7177;48.572;7.838;2022-10-16T04:21:19;5.80;;;3.83;;
14191;SDS011;7177;48.572;7.838;2022-10-16T04:23:44;6.50;;;3.67;;
14191;SDS011;7177;48.572;7.838;2022-10-16T04:26:11;9.40;;;4.10;;
14191;SDS011;7177;48.572;7.838;2022-10-16T04:28:37;8.30;;;3.47;;
14191;SDS011;7177;48.572;7.838;2022-10-16T04:31:06;6.53;;;3.77;;
14191;SDS011;7177;48.572;7.838;2022-10-16T04:33:32;6.13;;;3.67;;
14191;SDS011;7177;48.572;7.838;2022-10-16T04:35:58;6.47;;;3.93;;
14191;SDS011;7177;48.572;7.838;2022-10-16T04:38:24;4.13;;;3.50;;
14191;SDS011;7177;48.572;7.838;2022-10-16T04:40:50;10.93;;;3.80;;
14191;SDS011;7177;48.572;7.838;2022-10-16T04:43:16;6.57;;;3.90;;
14191;SDS011;7177;48.572;7.838;2022-10-16T04:45:42;4.83;;;3.77;;
14191;SDS011;7177;48.572;7.838;2022-10-16T04:48:07;6.40;;;4.00;;
14191;SDS011;7177;48.572;7.838;2022-10-16T04:50:33;7.93;;;3.70;;
14191;SDS011;7177;48.572;7.838;2022-10-16T04:52:58;4.43;;;3.47;;
14191;SDS011;7177;48.572;7.838;2022-10-16T04:55:24;8.00;;;3.70;;
14191;SDS011;7177;48.572;7.838;2022-10-16T04:57:49;4.97;;;3.60;;
14191;SDS011;7177;48.572;7.838;2022-10-16T05:00:15;5.97;;;3.83;;
14191;SDS011;7177;48.572;7.838;2022-10-16T05:02:41;10.93;;;3.60;;
14191;SDS011;7177;48.572;7.838;2022-10-16T05:05:06;7.37;;;3.10;;
14191;SDS011;7177;48.572;7.838;2022-10-16T05:07:32;4.00;;;3.30;;
14191;SDS011;7177;48.572;7.838;2022-10-16T05:09:57;4.37;;;3.40;;
14191;SDS011;7177;48.572;7.838;2022-10-16T05:12:23;6.40;;;3.83;;
14191;SDS011;7177;48.572;7.838;2022-10-16T05:14:48;4.40;;;3.43;;
14191;SDS011;7177;48.572;7.838;2022-10-16T05:17:14;9.60;;;3.50;;
14191;SDS011;7177;48.572;7.838;2022-10-16T05:19:39;7.27;;;3.37;;
14191;SDS011;7177;48.572;7.838;2022-10-16T05:22:05;5.67;;;3.90;;
14191;SDS011;7177;48.572;7.838;2022-10-16T05:24:30;6.27;;;3.30;;
14191;SDS011;7177;48.572;7.838;2022-10-16T05:26:56;5.67;;;3.70;;
14191;SDS011;7177;48.572;7.838;2022-10-16T05:29:22;7.23;;;3.70;;
14191;SDS011;7177;48.572;7.838;2022-10-16T05:31:49;5.80;;;3.37;;
14191;SDS011;7177;48.572;7.838;2022-10-16T05:34:16;5.73;;;3.40;;
14191;SDS011;7177;48.572;7.838;2022-10-16T05:36:42;6.83;;;3.70;;
14191;SDS011;7177;48.572;7.838;2022-10-16T05:39:10;8.13;;;3.47;;
14191;SDS011;7177;48.572;7.838;2022-10-16T05:41:35;4.77;;;3.60;;
14191;SDS011;7177;48.572;7.838;2022-10-16T05:44:03;8.50;;;3.93;;
14191;SDS011;7177;48.572;7.838;2022-10-16T05:46:29;6.67;;;3.67;;
14191;SDS011;7177;48.572;7.838;2022-10-16T05:48:55;4.33;;;3.10;;
14191;SDS011;7177;48.572;7.838;2022-10-16T05:51:20;6.27;;;3.10;;
14191;SDS011;7177;48.572;7.838;2022-10-16T05:53:46;5.47;;;3.70;;
14191;SDS011;7177;48.572;7.838;2022-10-16T05:56:12;4.13;;;3.10;;
14191;SDS011;7177;48.572;7.838;2022-10-16T05:58:38;6.40;;;3.37;;
14191;SDS011;7177;48.572;7.838;2022-10-16T06:01:26;4.50;;;3.07;;
14191;SDS011;7177;48.572;7.838;2022-10-16T06:03:51;6.40;;;3.20;;
14191;SDS011;7177;48.572;7.838;2022-10-16T06:06:18;4.30;;;3.10;;
14191;SDS011;7177;48.572;7.838;2022-10-16T06:08:46;6.03;;;3.27;;
14191;SDS011;7177;48.572;7.838;2022-10-16T06:11:14;4.10;;;3.00;;
14191;SDS011;7177;48.572;7.838;2022-10-16T06:13:43;8.77;;;3.10;;
14191;SDS011;7177;48.572;7.838;2022-10-16T06:16:11;8.20;;;3.20;;
14191;SDS011;7177;48.572;7.838;2022-10-16T06:18:37;6.07;;;2.50;;
14191;SDS011;7177;48.572;7.838;2022-10-16T06:21:14;4.17;;;3.00;;
14191;SDS011;7177;48.572;7.838;2022-10-16T06:23:42;5.47;;;2.70;;
14191;SDS011;7177;48.572;7.838;2022-10-16T06:26:09;4.43;;;2.70;;
14191;SDS011;7177;48.572;7.838;2022-10-16T06:28:36;4.97;;;2.90;;
14191;SDS011;7177;48.572;7.838;2022-10-16T06:31:03;6.07;;;3.07;;
14191;SDS011;7177;48.572;7.838;2022-10-16T06:33:30;4.97;;;3.13;;
14191;SDS011;7177;48.572;7.838;2022-10-16T06:38:30;7.57;;;2.90;;
14191;SDS011;7177;48.572;7.838;2022-10-16T06:40:56;8.37;;;3.20;;
14191;SDS011;7177;48.572;7.838;2022-10-16T06:43:22;4.90;;;2.77;;
14191;SDS011;7177;48.572;7.838;2022-10-16T06:45:52;4.37;;;2.60;;
14191;SDS011;7177;48.572;7.838;2022-10-16T06:48:19;4.07;;;2.80;;
14191;SDS011;7177;48.572;7.838;2022-10-16T06:50:54;3.17;;;2.77;;
14191;SDS011;7177;48.572;7.838;2022-10-16T06:53:21;4.77;;;2.70;;
14191;SDS011;7177;48.572;7.838;2022-10-16T06:55:47;3.00;;;2.70;;
14191;SDS011;7177;48.572;7.838;2022-10-16T06:58:12;10.73;;;3.73;;
14191;SDS011;7177;48.572;7.838;2022-10-16T07:00:38;5.33;;;3.27;;
14191;SDS011;7177;48.572;7.838;2022-10-16T07:03:03;20.47;;;3.20;;
14191;SDS011;7177;48.572;7.838;2022-10-16T07:05:29;7.23;;;3.10;;
14191;SDS011;7177;48.572;7.838;2022-10-16T07:07:54;9.37;;;2.90;;
14191;SDS011;7177;48.572;7.838;2022-10-16T07:10:20;4.37;;;2.30;;
14191;SDS011;7177;48.572;7.838;2022-10-16T07:12:49;9.17;;;3.10;;
14191;SDS011;7177;48.572;7.838;2022-10-16T07:15:14;4.00;;;2.83;;
14191;SDS011;7177;48.572;7.838;2022-10-16T07:17:40;7.87;;;2.87;;
14191;SDS011;7177;48.572;7.838;2022-10-16T07:20:05;5.63;;;3.03;;
14191;SDS011;7177;48.572;7.838;2022-10-16T07:22:32;5.10;;;2.83;;
14191;SDS011;7177;48.572;7.838;2022-10-16T07:24:57;4.53;;;3.33;;
14191;SDS011;7177;48.572;7.838;2022-10-16T07:27:23;4.33;;;3.10;;
14191;SDS011;7177;48.572;7.838;2022-10-16T07:29:49;3.53;;;2.73;;
14191;SDS011;7177;48.572;7.838;2022-10-16T07:32:15;6.07;;;3.67;;
14191;SDS011;7177;48.572;7.838;2022-10-16T07:34:41;7.17;;;3.63;;
14191;SDS011;7177;48.572;7.838;2022-10-16T07:37:07;5.87;;;3.00;;
14191;SDS011;7177;48.572;7.838;2022-10-16T07:39:32;5.97;;;2.80;;
14191;SDS011;7177;48.572;7.838;2022-10-16T07:41:58;9.47;;;2.93;;
14191;SDS011;7177;48.572;7.838;2022-10-16T07:44:24;6.90;;;3.03;;
14191;SDS011;7177;48.572;7.838;2022-10-16T07:46:49;10.33;;;3.20;;
14191;SDS011;7177;48.572;7.838;2022-10-16T07:49:15;6.57;;;2.87;;
14191;SDS011;7177;48.572;7.838;2022-10-16T07:51:40;6.70;;;3.00;;
14191;SDS011;7177;48.572;7.838;2022-10-16T07:54:07;5.43;;;2.80;;
14191;SDS011;7177;48.572;7.838;2022-10-16T07:56:34;4.77;;;3.07;;
14191;SDS011;7177;48.572;7.838;2022-10-16T07:58:59;13.47;;;3.43;;
14191;SDS011;7177;48.572;7.838;2022-10-16T08:01:25;7.00;;;2.97;;
14191;SDS011;7177;48.572;7.838;2022-10-16T08:03:51;3.57;;;2.70;;
14191;SDS011;7177;48.572;7.838;2022-10-16T08:06:18;3.13;;;2.83;;
14191;SDS011;7177;48.572;7.838;2022-10-16T08:08:44;5.67;;;2.80;;
14191;SDS011;7177;48.572;7.838;2022-10-16T08:11:10;4.80;;;3.10;;
14191;SDS011;7177;48.572;7.838;2022-10-16T08:13:36;6.20;;;3.23;;
14191;SDS011;7177;48.572;7.838;2022-10-16T08:16:02;8.50;;;3.40;;
14191;SDS011;7177;48.572;7.838;2022-10-16T08:18:32;7.33;;;3.10;;
14191;SDS011;7177;48.572;7.838;2022-10-16T08:20:59;5.03;;;3.00;;
14191;SDS011;7177;48.572;7.838;2022-10-16T08:23:25;7.73;;;2.93;;
14191;SDS011;7177;48.572;7.838;2022-10-16T08:25:52;4.77;;;2.83;;
14191;SDS011;7177;48.572;7.838;2022-10-16T08:28:18;5.80;;;3.27;;
14191;SDS011;7177;48.572;7.838;2022-10-16T08:30:44;7.23;;;2.90;;
14191;SDS011;7177;48.572;7.838;2022-10-16T08:33:10;9.73;;;3.00;;
14191;SDS011;7177;48.572;7.838;2022-10-16T08:35:36;7.57;;;3.30;;
14191;SDS011;7177;48.572;7.838;2022-10-16T08:38:04;4.27;;;2.70;;
14191;SDS011;7177;48.572;7.838;2022-10-16T08:40:31;8.10;;;3.00;;
14191;SDS011;7177;48.572;7.838;2022-10-16T08:45:39;10.43;;;3.30;;
14191;SDS011;7177;48.572;7.838;2022-10-16T08:51:15;6.27;;;2.93;;
14191;SDS011;7177;48.572;7.838;2022-10-16T08:53:57;4.53;;;2.73;;
14191;SDS011;7177;48.572;7.838;2022-10-16T08:56:26;6.93;;;2.60;;
14191;SDS011;7177;48.572;7.838;2022-10-16T08:58:52;7.40;;;2.47;;
14191;SDS011;7177;48.572;7.838;2022-10-16T09:01:19;3.30;;;2.70;;
14191;SDS011;7177;48.572;7.838;2022-10-16T09:09:24;5.10;;;2.40;;
14191;SDS011;7177;48.572;7.838;2022-10-16T09:19:45;4.13;;;2.40;;
14191;SDS011;7177;48.572;7.838;2022-10-16T09:22:16;6.60;;;2.20;;
14191;SDS011;7177;48.572;7.838;2022-10-16T09:24:46;4.47;;;2.07;;
14191;SDS011;7177;48.572;7.838;2022-10-16T09:27:12;4.40;;;2.30;;
14191;SDS011;7177;48.572;7.838;2022-10-16T09:29:39;4.80;;;2.70;;
14191;SDS011;7177;48.572;7.838;2022-10-16T09:32:12;6.37;;;2.80;;
14191;SDS011;7177;48.572;7.838;2022-10-16T09:34:43;6.70;;;2.90;;
14191;SDS011;7177;48.572;7.838;2022-10-16T09:37:12;6.27;;;2.73;;
14191;SDS011;7177;48.572;7.838;2022-10-16T09:39:50;4.50;;;2.80;;
14191;SDS011;7177;48.572;7.838;2022-10-16T09:42:27;9.53;;;2.87;;
14191;SDS011;7177;48.572;7.838;2022-10-16T09:44:57;3.80;;;2.40;;
14191;SDS011;7177;48.572;7.838;2022-10-16T09:47:24;5.37;;;2.77;;
14191;SDS011;7177;48.572;7.838;2022-10-16T09:49:55;7.23;;;2.40;;
14191;SDS011;7177;48.572;7.838;2022-10-16T09:52:22;5.37;;;2.63;;
14191;SDS011;7177;48.572;7.838;2022-10-16T09:55:34;4.53;;;2.30;;
14191;SDS011;7177;48.572;7.838;2022-10-16T09:57:51;5.23;;;2.57;;
14191;SDS011;7177;48.572;7.838;2022-10-16T10:00:18;5.67;;;3.13;;
14191;SDS011;7177;48.572;7.838;2022-10-16T10:02:45;4.27;;;2.50;;
14191;SDS011;7177;48.572;7.838;2022-10-16T10:05:18;6.57;;;2.67;;
14191;SDS011;7177;48.572;7.838;2022-10-16T10:07:44;3.40;;;2.53;;
14191;SDS011;7177;48.572;7.838;2022-10-16T10:10:21;3.37;;;2.43;;
14191;SDS011;7177;48.572;7.838;2022-10-16T10:12:51;4.63;;;2.20;;
14191;SDS011;7177;48.572;7.838;2022-10-16T10:15:17;5.23;;;2.80;;
14191;SDS011;7177;48.572;7.838;2022-10-16T10:17:53;4.50;;;2.47;;
14191;SDS011;7177;48.572;7.838;2022-10-16T10:22:48;4.07;;;2.37;;
14191;SDS011;7177;48.572;7.838;2022-10-16T10:33:47;5.87;;;2.43;;
14191;SDS011;7177;48.572;7.838;2022-10-16T10:36:26;4.87;;;2.47;;
14191;SDS011;7177;48.572;7.838;2022-10-16T10:53:05;5.50;;;2.03;;
14191;SDS011;7177;48.572;7.838;2022-10-16T10:55:52;3.97;;;2.00;;
14191;SDS011;7177;48.572;7.838;2022-10-16T10:58:34;5.33;;;2.53;;
14191;SDS011;7177;48.572;7.838;2022-10-16T11:01:17;7.43;;;2.13;;
14191;SDS011;7177;48.572;7.838;2022-10-16T11:06:50;2.83;;;2.10;;
14191;SDS011;7177;48.572;7.838;2022-10-16T11:17:18;5.73;;;2.30;;
14191;SDS011;7177;48.572;7.838;2022-10-16T11:19:51;5.87;;;2.00;;
14191;SDS011;7177;48.572;7.838;2022-10-16T11:22:30;5.23;;;2.23;;
14191;SDS011;7177;48.572;7.838;2022-10-16T11:25:06;2.30;;;2.10;;
14191;SDS011;7177;48.572;7.838;2022-10-16T11:27:41;8.03;;;2.17;;
14191;SDS011;7177;48.572;7.838;2022-10-16T11:30:17;6.77;;;1.90;;
14191;SDS011;7177;48.572;7.838;2022-10-16T11:32:50;4.33;;;2.00;;
14191;SDS011;7177;48.572;7.838;2022-10-16T11:40:57;2.17;;;1.70;;
14191;SDS011;7177;48.572;7.838;2022-10-16T11:43:30;8.00;;;2.43;;
14191;SDS011;7177;48.572;7.838;2022-10-16T11:45:57;2.63;;;2.20;;
14191;SDS011;7177;48.572;7.838;2022-10-16T11:48:35;2.90;;;2.30;;
14191;SDS011;7177;48.572;7.838;2022-10-16T11:51:26;3.57;;;1.93;;
14191;SDS011;7177;48.572;7.838;2022-10-16T11:53:51;21.37;;;2.73;;
14191;SDS011;7177;48.572;7.838;2022-10-16T11:56:24;7.90;;;2.40;;
14191;SDS011;7177;48.572;7.838;2022-10-16T12:09:15;4.63;;;2.10;;
14191;SDS011;7177;48.572;7.838;2022-10-16T12:11:50;3.23;;;1.90;;
14191;SDS011;7177;48.572;7.838;2022-10-16T12:14:21;4.17;;;2.10;;
14191;SDS011;7177;48.572;7.838;2022-10-16T12:16:54;3.50;;;2.17;;
14191;SDS011;7177;48.572;7.838;2022-10-16T12:19:30;4.50;;;1.90;;
14191;SDS011;7177;48.572;7.838;2022-10-16T12:21:58;7.67;;;2.10;;
14191;SDS011;7177;48.572;7.838;2022-10-16T12:24:36;4.67;;;2.00;;
14191;SDS011;7177;48.572;7.838;2022-10-16T12:27:04;3.73;;;1.90;;
14191;SDS011;7177;48.572;7.838;2022-10-16T12:29:32;7.10;;;1.90;;
14191;SDS011;7177;48.572;7.838;2022-10-16T12:35:00;2.97;;;1.80;;
14191;SDS011;7177;48.572;7.838;2022-10-16T12:39:56;8.27;;;2.13;;
14191;SDS011;7177;48.572;7.838;2022-10-16T12:44:48;3.73;;;1.80;;
14191;SDS011;7177;48.572;7.838;2022-10-16T12:52:53;6.63;;;2.20;;
14191;SDS011;7177;48.572;7.838;2022-10-16T12:55:20;6.30;;;2.23;;
14191;SDS011;7177;48.572;7.838;2022-10-16T12:58:05;2.73;;;1.77;;
14191;SDS011;7177;48.572;7.838;2022-10-16T13:04:28;3.73;;;1.90;;
14191;SDS011;7177;48.572;7.838;2022-10-16T13:09:34;2.43;;;2.07;;
14191;SDS011;7177;48.572;7.838;2022-10-16T13:15:16;2.83;;;2.20;;
14191;SDS011;7177;48.572;7.838;2022-10-16T13:24:10;2.17;;;1.83;;
14191;SDS011;7177;48.572;7.838;2022-10-16T13:29:32;4.17;;;1.93;;
14191;SDS011;7177;48.572;7.838;2022-10-16T13:31:59;6.07;;;1.90;;
14191;SDS011;7177;48.572;7.838;2022-10-16T13:34:31;2.60;;;1.60;;
14191;SDS011;7177;48.572;7.838;2022-10-16T13:36:57;2.57;;;1.50;;
14191;SDS011;7177;48.572;7.838;2022-10-16T13:39:23;4.47;;;1.97;;
14191;SDS011;7177;48.572;7.838;2022-10-16T13:44:40;2.80;;;1.73;;
14191;SDS011;7177;48.572;7.838;2022-10-16T13:47:15;5.07;;;2.23;;
14191;SDS011;7177;48.572;7.838;2022-10-16T13:49:43;3.93;;;1.53;;
14191;SDS011;7177;48.572;7.838;2022-10-16T13:52:15;3.93;;;1.60;;
14191;SDS011;7177;48.572;7.838;2022-10-16T13:54:43;2.10;;;1.70;;
14191;SDS011;7177;48.572;7.838;2022-10-16T13:57:11;5.77;;;1.80;;
14191;SDS011;7177;48.572;7.838;2022-10-16T13:59:38;4.97;;;1.80;;
14191;SDS011;7177;48.572;7.838;2022-10-16T14:02:17;4.03;;;1.70;;
14191;SDS011;7177;48.572;7.838;2022-10-16T14:04:51;2.20;;;1.67;;
14191;SDS011;7177;48.572;7.838;2022-10-16T14:07:20;4.20;;;1.90;;
14191;SDS011;7177;48.572;7.838;2022-10-16T14:09:50;6.67;;;1.90;;
14191;SDS011;7177;48.572;7.838;2022-10-16T14:12:17;2.40;;;1.77;;
14191;SDS011;7177;48.572;7.838;2022-10-16T14:14:43;3.00;;;1.80;;
14191;SDS011;7177;48.572;7.838;2022-10-16T14:17:29;3.80;;;1.80;;
14191;SDS011;7177;48.572;7.838;2022-10-16T14:19:58;5.73;;;1.80;;
14191;SDS011;7177;48.572;7.838;2022-10-16T14:22:29;4.70;;;1.90;;
14191;SDS011;7177;48.572;7.838;2022-10-16T14:25:20;3.03;;;1.83;;
14191;SDS011;7177;48.572;7.838;2022-10-16T14:35:57;2.83;;;1.63;;
14191;SDS011;7177;48.572;7.838;2022-10-16T14:38:35;2.83;;;1.63;;
14191;SDS011;7177;48.572;7.838;2022-10-16T14:41:02;2.57;;;1.70;;
14191;SDS011;7177;48.572;7.838;2022-10-16T14:43:31;2.27;;;1.73;;
14191;SDS011;7177;48.572;7.838;2022-10-16T14:45:59;4.93;;;2.10;;
14191;SDS011;7177;48.572;7.838;2022-10-16T14:48:26;4.13;;;2.00;;
14191;SDS011;7177;48.572;7.838;2022-10-16T14:50:52;7.57;;;2.10;;
14191;SDS011;7177;48.572;7.838;2022-10-16T14:53:17;2.13;;;1.83;;
14191;SDS011;7177;48.572;7.838;2022-10-16T14:55:43;1.97;;;1.67;;
14191;SDS011;7177;48.572;7.838;2022-10-16T14:58:13;2.83;;;1.80;;
14191;SDS011;7177;48.572;7.838;2022-10-16T15:00:44;4.23;;;1.80;;
14191;SDS011;7177;48.572;7.838;2022-10-16T15:03:10;4.07;;;1.90;;
14191;SDS011;7177;48.572;7.838;2022-10-16T15:05:36;4.13;;;1.97;;
14191;SDS011;7177;48.572;7.838;2022-10-16T15:08:02;2.60;;;2.40;;
14191;SDS011;7177;48.572;7.838;2022-10-16T15:10:29;6.77;;;2.60;;
14191;SDS011;7177;48.572;7.838;2022-10-16T15:12:56;3.87;;;2.07;;
14191;SDS011;7177;48.572;7.838;2022-10-16T15:17:47;2.57;;;1.80;;
14191;SDS011;7177;48.572;7.838;2022-10-16T15:20:17;2.87;;;1.70;;
14191;SDS011;7177;48.572;7.838;2022-10-16T15:22:42;3.30;;;1.90;;
14191;SDS011;7177;48.572;7.838;2022-10-16T15:25:22;2.90;;;1.93;;
14191;SDS011;7177;48.572;7.838;2022-10-16T15:27:54;6.17;;;1.80;;
14191;SDS011;7177;48.572;7.838;2022-10-16T15:30:20;4.10;;;1.90;;
14191;SDS011;7177;48.572;7.838;2022-10-16T15:32:45;2.13;;;1.90;;
14191;SDS011;7177;48.572;7.838;2022-10-16T15:35:11;4.53;;;1.90;;
14191;SDS011;7177;48.572;7.838;2022-10-16T15:37:36;4.53;;;1.60;;
14191;SDS011;7177;48.572;7.838;2022-10-16T15:40:02;5.90;;;2.00;;
14191;SDS011;7177;48.572;7.838;2022-10-16T15:42:28;2.60;;;1.93;;
14191;SDS011;7177;48.572;7.838;2022-10-16T15:44:53;3.53;;;2.23;;
14191;SDS011;7177;48.572;7.838;2022-10-16T15:47:19;2.27;;;2.07;;
14191;SDS011;7177;48.572;7.838;2022-10-16T15:49:44;2.20;;;1.93;;
14191;SDS011;7177;48.572;7.838;2022-10-16T15:52:10;4.37;;;2.50;;
14191;SDS011;7177;48.572;7.838;2022-10-16T15:54:36;2.43;;;2.07;;
14191;SDS011;7177;48.572;7.838;2022-10-16T15:57:02;2.97;;;2.13;;
14191;SDS011;7177;48.572;7.838;2022-10-16T15:59:27;3.27;;;1.60;;
14191;SDS011;7177;48.572;7.838;2022-10-16T16:01:53;4.03;;;2.27;;
14191;SDS011;7177;48.572;7.838;2022-10-16T16:04:18;2.10;;;1.90;;
14191;SDS011;7177;48.572;7.838;2022-10-16T16:06:44;2.50;;;2.30;;
14191;SDS011;7177;48.572;7.838;2022-10-16T16:09:11;4.27;;;2.20;;
14191;SDS011;7177;48.572;7.838;2022-10-16T16:11:37;3.20;;;2.27;;
14191;SDS011;7177;48.572;7.838;2022-10-16T16:14:04;2.73;;;2.27;;
14191;SDS011;7177;48.572;7.838;2022-10-16T16:16:35;2.93;;;2.40;;
14191;SDS011;7177;48.572;7.838;2022-10-16T16:19:03;5.60;;;2.57;;
14191;SDS011;7177;48.572;7.838;2022-10-16T16:21:30;2.47;;;2.20;;
14191;SDS011;7177;48.572;7.838;2022-10-16T16:23:57;3.70;;;2.30;;
14191;SDS011;7177;48.572;7.838;2022-10-16T16:26:27;2.77;;;1.87;;
14191;SDS011;7177;48.572;7.838;2022-10-16T16:28:58;2.20;;;2.00;;
14191;SDS011;7177;48.572;7.838;2022-10-16T16:31:25;2.23;;;2.00;;
14191;SDS011;7177;48.572;7.838;2022-10-16T16:33:52;4.13;;;2.87;;
14191;SDS011;7177;48.572;7.838;2022-10-16T16:36:18;2.93;;;2.30;;
14191;SDS011;7177;48.572;7.838;2022-10-16T16:38:44;3.27;;;2.67;;
14191;SDS011;7177;48.572;7.838;2022-10-16T16:41:17;3.60;;;2.43;;
14191;SDS011;7177;48.572;7.838;2022-10-16T16:43:45;5.60;;;2.73;;
14191;SDS011;7177;48.572;7.838;2022-10-16T16:46:12;5.27;;;3.03;;
14191;SDS011;7177;48.572;7.838;2022-10-16T16:48:38;4.77;;;3.13;;
14191;SDS011;7177;48.572;7.838;2022-10-16T16:51:04;3.43;;;2.93;;
14191;SDS011;7177;48.572;7.838;2022-10-16T16:53:32;3.87;;;3.00;;
14191;SDS011;7177;48.572;7.838;2022-10-16T16:56:03;4.20;;;2.70;;
14191;SDS011;7177;48.572;7.838;2022-10-16T16:58:29;4.53;;;2.83;;
14191;SDS011;7177;48.572;7.838;2022-10-16T17:00:55;4.80;;;3.00;;
14191;SDS011;7177;48.572;7.838;2022-10-16T17:03:20;7.80;;;2.93;;
14191;SDS011;7177;48.572;7.838;2022-10-16T17:05:59;3.77;;;2.57;;
14191;SDS011;7177;48.572;7.838;2022-10-16T17:08:24;3.73;;;2.67;;
14191;SDS011;7177;48.572;7.838;2022-10-16T17:10:50;6.83;;;2.90;;
14191;SDS011;7177;48.572;7.838;2022-10-16T17:13:19;3.37;;;2.80;;
14191;SDS011;7177;48.572;7.838;2022-10-16T17:15:54;2.93;;;2.60;;
14191;SDS011;7177;48.572;7.838;2022-10-16T17:18:20;8.40;;;2.90;;
14191;SDS011;7177;48.572;7.838;2022-10-16T17:20:48;8.83;;;5.57;;
14191;SDS011;7177;48.572;7.838;2022-10-16T17:23:14;9.30;;;7.03;;
14191;SDS011;7177;48.572;7.838;2022-10-16T17:25:41;10.40;;;7.97;;